sensor_id;sensor_type;location;lat;lon;timestamp;P1;durP1;ratioP1;P2;durP2;ratioP2
8993;SDS011;4532;50.886;4.700;2022-10-16T00:01:35;1.43;;;1.00;;
8993;SDS011;4532;50.886;4.700;2022-10-16T00:04:03;2.20;;;0.90;;
8993;SDS011;4532;50.886;4.700;2022-10-16T00:06:32;1.10;;;0.70;;
8993;SDS011;4532;50.886;4.700;2022-10-16T00:09:02;1.67;;;0.80;;
8993;SDS011;4532;50.886;4.700;2022-10-16T00:11:31;1.80;;;0.63;;
8993;SDS011;4532;50.886;4.700;2022-10-16T00:14:00;0.50;;;0.40;;
8993;SDS011;4532;50.886;4.700;2022-10-16T00:16:30;0.77;;;0.77;;
8993;SDS011;4532;50.886;4.700;2022-10-16T00:18:58;0.60;;;0.60;;
8993;SDS011;4532;50.886;4.700;2022-10-16T00:21:28;0.77;;;0.70;;
8993;SDS011;4532;50.886;4.700;2022-10-16T00:23:57;1.07;;;0.67;;
8993;SDS011;4532;50.886;4.700;2022-10-16T00:26:31;1.37;;;0.60;;
8993;SDS011;4532;50.886;4.700;2022-10-16T00:29:00;3.20;;;0.93;;
8993;SDS011;4532;50.886;4.700;2022-10-16T00:31:27;3.17;;;0.70;;
8993;SDS011;4532;50.886;4.700;2022-10-16T00:33:57;2.63;;;0.90;;
8993;SDS011;4532;50.886;4.700;2022-10-16T00:36:25;1.67;;;0.80;;
8993;SDS011;4532;50.886;4.700;2022-10-16T00:38:53;2.40;;;0.70;;
8993;SDS011;4532;50.886;4.700;2022-10-16T00:41:23;1.20;;;0.90;;
8993;SDS011;4532;50.886;4.700;2022-10-16T00:43:55;0.83;;;0.70;;
8993;SDS011;4532;50.886;4.700;2022-10-16T00:49:15;1.30;;;0.70;;
8993;SDS011;4532;50.886;4.700;2022-10-16T00:51:45;1.43;;;0.70;;
8993;SDS011;4532;50.886;4.700;2022-10-16T00:56:50;1.73;;;0.60;;
8993;SDS011;4532;50.886;4.700;2022-10-16T00:59:19;0.50;;;0.50;;
8993;SDS011;4532;50.886;4.700;2022-10-16T01:01:51;0.80;;;0.43;;
8993;SDS011;4532;50.886;4.700;2022-10-16T01:04:19;0.67;;;0.50;;
8993;SDS011;4532;50.886;4.700;2022-10-16T01:17:55;0.60;;;0.50;;
8993;SDS011;4532;50.886;4.700;2022-10-16T01:22:59;1.07;;;0.70;;
8993;SDS011;4532;50.886;4.700;2022-10-16T01:25:39;0.80;;;0.60;;
8993;SDS011;4532;50.886;4.700;2022-10-16T01:28:34;0.87;;;0.60;;
8993;SDS011;4532;50.886;4.700;2022-10-16T01:31:08;1.47;;;0.60;;
8993;SDS011;4532;50.886;4.700;2022-10-16T01:33:47;0.80;;;0.50;;
8993;SDS011;4532;50.886;4.700;2022-10-16T01:36:24;0.80;;;0.80;;
8993;SDS011;4532;50.886;4.700;2022-10-16T01:38:58;1.00;;;0.43;;
8993;SDS011;4532;50.886;4.700;2022-10-16T01:41:30;1.50;;;0.80;;
8993;SDS011;4532;50.886;4.700;2022-10-16T01:44:51;1.43;;;0.70;;
8993;SDS011;4532;50.886;4.700;2022-10-16T01:47:15;0.77;;;0.70;;
8993;SDS011;4532;50.886;4.700;2022-10-16T01:49:43;0.97;;;0.70;;
8993;SDS011;4532;50.886;4.700;2022-10-16T01:52:14;0.97;;;0.80;;
8993;SDS011;4532;50.886;4.700;2022-10-16T01:54:45;0.77;;;0.60;;
8993;SDS011;4532;50.886;4.700;2022-10-16T01:57:15;0.70;;;0.60;;
8993;SDS011;4532;50.886;4.700;2022-10-16T01:59:45;1.20;;;0.80;;
8993;SDS011;4532;50.886;4.700;2022-10-16T02:02:16;1.07;;;0.77;;
8993;SDS011;4532;50.886;4.700;2022-10-16T02:04:58;1.43;;;0.80;;
8993;SDS011;4532;50.886;4.700;2022-10-16T02:07:33;1.50;;;0.63;;
8993;SDS011;4532;50.886;4.700;2022-10-16T02:10:00;0.80;;;0.70;;
8993;SDS011;4532;50.886;4.700;2022-10-16T02:12:28;1.53;;;0.60;;
8993;SDS011;4532;50.886;4.700;2022-10-16T02:14:59;0.63;;;0.63;;
8993;SDS011;4532;50.886;4.700;2022-10-16T02:17:26;2.00;;;0.70;;
8993;SDS011;4532;50.886;4.700;2022-10-16T02:19:56;1.13;;;0.80;;
8993;SDS011;4532;50.886;4.700;2022-10-16T02:22:35;0.93;;;0.70;;
8993;SDS011;4532;50.886;4.700;2022-10-16T02:25:11;1.43;;;0.80;;
8993;SDS011;4532;50.886;4.700;2022-10-16T02:28:00;1.93;;;0.90;;
8993;SDS011;4532;50.886;4.700;2022-10-16T02:30:33;1.50;;;0.80;;
8993;SDS011;4532;50.886;4.700;2022-10-16T02:33:14;1.13;;;0.80;;
8993;SDS011;4532;50.886;4.700;2022-10-16T02:35:44;2.53;;;0.90;;
8993;SDS011;4532;50.886;4.700;2022-10-16T02:38:14;2.00;;;0.90;;
8993;SDS011;4532;50.886;4.700;2022-10-16T02:40:42;1.07;;;0.77;;
8993;SDS011;4532;50.886;4.700;2022-10-16T02:43:15;2.27;;;0.83;;
8993;SDS011;4532;50.886;4.700;2022-10-16T02:45:45;1.30;;;0.70;;
8993;SDS011;4532;50.886;4.700;2022-10-16T02:48:12;2.57;;;0.90;;
8993;SDS011;4532;50.886;4.700;2022-10-16T02:50:39;1.17;;;0.80;;
8993;SDS011;4532;50.886;4.700;2022-10-16T02:53:06;1.20;;;0.77;;
8993;SDS011;4532;50.886;4.700;2022-10-16T02:55:34;1.50;;;0.90;;
8993;SDS011;4532;50.886;4.700;2022-10-16T02:58:01;0.80;;;0.70;;
8993;SDS011;4532;50.886;4.700;2022-10-16T03:00:28;1.03;;;0.60;;
8993;SDS011;4532;50.886;4.700;2022-10-16T03:02:55;0.80;;;0.77;;
8993;SDS011;4532;50.886;4.700;2022-10-16T03:05:23;2.33;;;0.90;;
8993;SDS011;4532;50.886;4.700;2022-10-16T03:07:50;3.13;;;0.87;;
8993;SDS011;4532;50.886;4.700;2022-10-16T03:10:19;2.27;;;1.00;;
8993;SDS011;4532;50.886;4.700;2022-10-16T03:12:46;1.03;;;0.80;;
8993;SDS011;4532;50.886;4.700;2022-10-16T03:15:13;1.43;;;0.90;;
8993;SDS011;4532;50.886;4.700;2022-10-16T03:17:40;1.00;;;0.80;;
8993;SDS011;4532;50.886;4.700;2022-10-16T03:20:07;1.33;;;0.83;;
8993;SDS011;4532;50.886;4.700;2022-10-16T03:22:35;1.30;;;0.80;;
8993;SDS011;4532;50.886;4.700;2022-10-16T03:25:02;2.10;;;0.90;;
8993;SDS011;4532;50.886;4.700;2022-10-16T03:27:30;2.70;;;1.00;;
8993;SDS011;4532;50.886;4.700;2022-10-16T03:29:59;1.10;;;1.00;;
8993;SDS011;4532;50.886;4.700;2022-10-16T03:32:26;1.20;;;0.87;;
8993;SDS011;4532;50.886;4.700;2022-10-16T03:34:55;1.97;;;1.00;;
8993;SDS011;4532;50.886;4.700;2022-10-16T03:37:25;2.13;;;1.00;;
8993;SDS011;4532;50.886;4.700;2022-10-16T03:39:53;1.90;;;0.83;;
8993;SDS011;4532;50.886;4.700;2022-10-16T03:42:22;2.13;;;1.07;;
8993;SDS011;4532;50.886;4.700;2022-10-16T03:44:53;2.93;;;0.80;;
8993;SDS011;4532;50.886;4.700;2022-10-16T03:47:20;4.00;;;0.80;;
8993;SDS011;4532;50.886;4.700;2022-10-16T03:49:50;1.57;;;0.93;;
8993;SDS011;4532;50.886;4.700;2022-10-16T03:52:17;1.63;;;1.33;;
8993;SDS011;4532;50.886;4.700;2022-10-16T03:54:49;1.27;;;0.93;;
8993;SDS011;4532;50.886;4.700;2022-10-16T03:57:17;0.93;;;0.77;;
8993;SDS011;4532;50.886;4.700;2022-10-16T03:59:44;1.90;;;0.80;;
8993;SDS011;4532;50.886;4.700;2022-10-16T04:02:12;1.70;;;0.97;;
8993;SDS011;4532;50.886;4.700;2022-10-16T04:04:39;1.13;;;0.97;;
8993;SDS011;4532;50.886;4.700;2022-10-16T04:07:09;2.73;;;0.87;;
8993;SDS011;4532;50.886;4.700;2022-10-16T04:09:36;2.43;;;1.00;;
8993;SDS011;4532;50.886;4.700;2022-10-16T04:12:05;1.90;;;0.83;;
8993;SDS011;4532;50.886;4.700;2022-10-16T04:14:32;2.87;;;0.90;;
8993;SDS011;4532;50.886;4.700;2022-10-16T04:16:59;3.00;;;0.93;;
8993;SDS011;4532;50.886;4.700;2022-10-16T04:19:26;1.07;;;0.97;;
8993;SDS011;4532;50.886;4.700;2022-10-16T04:21:54;1.63;;;1.33;;
8993;SDS011;4532;50.886;4.700;2022-10-16T04:24:21;1.20;;;0.90;;
8993;SDS011;4532;50.886;4.700;2022-10-16T04:26:48;3.17;;;0.97;;
8993;SDS011;4532;50.886;4.700;2022-10-16T04:29:18;1.17;;;0.80;;
8993;SDS011;4532;50.886;4.700;2022-10-16T04:31:47;1.20;;;0.80;;
8993;SDS011;4532;50.886;4.700;2022-10-16T04:34:15;1.83;;;1.03;;
8993;SDS011;4532;50.886;4.700;2022-10-16T04:36:42;3.80;;;1.23;;
8993;SDS011;4532;50.886;4.700;2022-10-16T04:39:13;1.43;;;0.97;;
8993;SDS011;4532;50.886;4.700;2022-10-16T04:41:40;2.17;;;1.20;;
8993;SDS011;4532;50.886;4.700;2022-10-16T04:44:07;2.50;;;1.10;;
8993;SDS011;4532;50.886;4.700;2022-10-16T04:46:34;3.13;;;1.10;;
8993;SDS011;4532;50.886;4.700;2022-10-16T04:49:02;2.70;;;1.10;;
8993;SDS011;4532;50.886;4.700;2022-10-16T04:51:29;1.60;;;1.00;;
8993;SDS011;4532;50.886;4.700;2022-10-16T04:53:59;1.23;;;1.10;;
8993;SDS011;4532;50.886;4.700;2022-10-16T04:56:26;1.80;;;1.10;;
8993;SDS011;4532;50.886;4.700;2022-10-16T04:58:53;4.23;;;1.00;;
8993;SDS011;4532;50.886;4.700;2022-10-16T05:01:20;2.23;;;1.40;;
8993;SDS011;4532;50.886;4.700;2022-10-16T05:03:47;1.60;;;1.30;;
8993;SDS011;4532;50.886;4.700;2022-10-16T05:06:15;2.10;;;1.77;;
8993;SDS011;4532;50.886;4.700;2022-10-16T05:08:42;4.20;;;1.17;;
8993;SDS011;4532;50.886;4.700;2022-10-16T05:11:09;1.10;;;1.00;;
8993;SDS011;4532;50.886;4.700;2022-10-16T05:13:37;2.83;;;1.00;;
8993;SDS011;4532;50.886;4.700;2022-10-16T05:16:04;1.67;;;1.13;;
8993;SDS011;4532;50.886;4.700;2022-10-16T05:18:34;1.47;;;1.10;;
8993;SDS011;4532;50.886;4.700;2022-10-16T05:21:01;1.97;;;1.30;;
8993;SDS011;4532;50.886;4.700;2022-10-16T05:23:30;1.80;;;0.90;;
8993;SDS011;4532;50.886;4.700;2022-10-16T05:25:58;1.33;;;1.10;;
8993;SDS011;4532;50.886;4.700;2022-10-16T05:28:28;1.43;;;1.33;;
8993;SDS011;4532;50.886;4.700;2022-10-16T05:30:56;2.63;;;1.20;;
8993;SDS011;4532;50.886;4.700;2022-10-16T05:33:26;1.83;;;1.50;;
8993;SDS011;4532;50.886;4.700;2022-10-16T05:35:53;2.67;;;1.30;;
8993;SDS011;4532;50.886;4.700;2022-10-16T05:38:20;2.37;;;1.17;;
8993;SDS011;4532;50.886;4.700;2022-10-16T05:40:51;3.63;;;1.67;;
8993;SDS011;4532;50.886;4.700;2022-10-16T05:43:19;1.70;;;1.27;;
8993;SDS011;4532;50.886;4.700;2022-10-16T05:45:56;1.47;;;0.93;;
8993;SDS011;4532;50.886;4.700;2022-10-16T05:48:25;1.13;;;1.03;;
8993;SDS011;4532;50.886;4.700;2022-10-16T05:51:00;3.70;;;1.53;;
8993;SDS011;4532;50.886;4.700;2022-10-16T05:53:31;2.30;;;1.20;;
8993;SDS011;4532;50.886;4.700;2022-10-16T05:56:00;2.87;;;1.20;;
8993;SDS011;4532;50.886;4.700;2022-10-16T05:58:29;1.97;;;1.30;;
8993;SDS011;4532;50.886;4.700;2022-10-16T06:01:06;1.50;;;1.17;;
8993;SDS011;4532;50.886;4.700;2022-10-16T06:03:39;5.90;;;1.73;;
8993;SDS011;4532;50.886;4.700;2022-10-16T06:06:16;1.37;;;1.13;;
8993;SDS011;4532;50.886;4.700;2022-10-16T06:08:46;4.23;;;1.33;;
8993;SDS011;4532;50.886;4.700;2022-10-16T06:11:15;2.07;;;1.20;;
8993;SDS011;4532;50.886;4.700;2022-10-16T06:13:48;2.77;;;1.70;;
8993;SDS011;4532;50.886;4.700;2022-10-16T06:16:17;3.00;;;1.50;;
8993;SDS011;4532;50.886;4.700;2022-10-16T06:18:44;2.13;;;1.40;;
8993;SDS011;4532;50.886;4.700;2022-10-16T06:21:17;2.93;;;1.40;;
8993;SDS011;4532;50.886;4.700;2022-10-16T06:23:46;4.67;;;1.70;;
8993;SDS011;4532;50.886;4.700;2022-10-16T06:26:16;2.73;;;1.43;;
8993;SDS011;4532;50.886;4.700;2022-10-16T06:28:47;4.07;;;1.50;;
8993;SDS011;4532;50.886;4.700;2022-10-16T06:31:16;2.10;;;1.30;;
8993;SDS011;4532;50.886;4.700;2022-10-16T06:33:44;3.10;;;1.40;;
8993;SDS011;4532;50.886;4.700;2022-10-16T06:36:15;3.00;;;1.40;;
8993;SDS011;4532;50.886;4.700;2022-10-16T06:38:46;2.60;;;1.40;;
8993;SDS011;4532;50.886;4.700;2022-10-16T06:41:14;2.33;;;1.20;;
8993;SDS011;4532;50.886;4.700;2022-10-16T06:43:44;2.63;;;1.67;;
8993;SDS011;4532;50.886;4.700;2022-10-16T06:46:12;4.03;;;1.50;;
8993;SDS011;4532;50.886;4.700;2022-10-16T06:48:41;5.00;;;1.60;;
8993;SDS011;4532;50.886;4.700;2022-10-16T06:51:10;2.77;;;1.47;;
8993;SDS011;4532;50.886;4.700;2022-10-16T06:53:46;2.37;;;1.40;;
8993;SDS011;4532;50.886;4.700;2022-10-16T06:56:29;2.20;;;1.60;;
8993;SDS011;4532;50.886;4.700;2022-10-16T06:58:58;2.23;;;1.50;;
8993;SDS011;4532;50.886;4.700;2022-10-16T07:01:28;2.90;;;1.43;;
8993;SDS011;4532;50.886;4.700;2022-10-16T07:03:58;2.57;;;1.40;;
8993;SDS011;4532;50.886;4.700;2022-10-16T07:06:30;2.30;;;1.47;;
8993;SDS011;4532;50.886;4.700;2022-10-16T07:09:00;4.87;;;1.83;;
8993;SDS011;4532;50.886;4.700;2022-10-16T07:11:28;1.37;;;1.27;;
8993;SDS011;4532;50.886;4.700;2022-10-16T07:13:56;2.77;;;1.50;;
8993;SDS011;4532;50.886;4.700;2022-10-16T07:16:24;1.40;;;1.30;;
8993;SDS011;4532;50.886;4.700;2022-10-16T07:18:54;2.27;;;1.60;;
8993;SDS011;4532;50.886;4.700;2022-10-16T07:21:27;2.97;;;1.93;;
8993;SDS011;4532;50.886;4.700;2022-10-16T07:23:58;2.13;;;1.50;;
8993;SDS011;4532;50.886;4.700;2022-10-16T07:26:30;3.67;;;1.70;;
8993;SDS011;4532;50.886;4.700;2022-10-16T07:28:59;4.53;;;1.80;;
8993;SDS011;4532;50.886;4.700;2022-10-16T07:31:27;5.13;;;1.43;;
8993;SDS011;4532;50.886;4.700;2022-10-16T07:33:55;1.83;;;1.50;;
8993;SDS011;4532;50.886;4.700;2022-10-16T07:36:26;2.53;;;1.33;;
8993;SDS011;4532;50.886;4.700;2022-10-16T07:38:54;2.60;;;1.30;;
8993;SDS011;4532;50.886;4.700;2022-10-16T07:41:25;2.47;;;1.50;;
8993;SDS011;4532;50.886;4.700;2022-10-16T07:43:56;2.90;;;1.83;;
8993;SDS011;4532;50.886;4.700;2022-10-16T07:46:27;4.07;;;1.30;;
8993;SDS011;4532;50.886;4.700;2022-10-16T07:48:57;2.00;;;1.60;;
8993;SDS011;4532;50.886;4.700;2022-10-16T07:51:24;3.13;;;1.67;;
8993;SDS011;4532;50.886;4.700;2022-10-16T07:53:52;2.27;;;1.40;;
8993;SDS011;4532;50.886;4.700;2022-10-16T07:56:20;2.63;;;1.60;;
8993;SDS011;4532;50.886;4.700;2022-10-16T07:58:48;2.70;;;1.87;;
8993;SDS011;4532;50.886;4.700;2022-10-16T08:01:17;4.80;;;1.90;;
8993;SDS011;4532;50.886;4.700;2022-10-16T08:03:45;2.00;;;1.60;;
8993;SDS011;4532;50.886;4.700;2022-10-16T08:06:15;2.53;;;1.60;;
8993;SDS011;4532;50.886;4.700;2022-10-16T08:08:44;2.47;;;1.60;;
8993;SDS011;4532;50.886;4.700;2022-10-16T08:11:14;3.17;;;1.60;;
8993;SDS011;4532;50.886;4.700;2022-10-16T08:13:41;2.10;;;1.53;;
8993;SDS011;4532;50.886;4.700;2022-10-16T08:16:11;2.90;;;1.60;;
8993;SDS011;4532;50.886;4.700;2022-10-16T08:18:39;2.87;;;1.93;;
8993;SDS011;4532;50.886;4.700;2022-10-16T08:21:08;3.47;;;1.63;;
8993;SDS011;4532;50.886;4.700;2022-10-16T08:23:46;2.73;;;1.40;;
8993;SDS011;4532;50.886;4.700;2022-10-16T08:26:23;2.17;;;1.40;;
8993;SDS011;4532;50.886;4.700;2022-10-16T08:28:51;2.37;;;1.40;;
8993;SDS011;4532;50.886;4.700;2022-10-16T08:31:19;6.40;;;1.70;;
8993;SDS011;4532;50.886;4.700;2022-10-16T08:33:47;3.50;;;1.47;;
8993;SDS011;4532;50.886;4.700;2022-10-16T08:36:15;2.27;;;1.30;;
8993;SDS011;4532;50.886;4.700;2022-10-16T08:38:43;3.53;;;1.73;;
8993;SDS011;4532;50.886;4.700;2022-10-16T08:50:00;1.97;;;1.10;;
8993;SDS011;4532;50.886;4.700;2022-10-16T08:52:35;1.77;;;1.20;;
8993;SDS011;4532;50.886;4.700;2022-10-16T08:55:23;3.17;;;1.00;;
8993;SDS011;4532;50.886;4.700;2022-10-16T08:58:13;3.00;;;1.47;;
8993;SDS011;4532;50.886;4.700;2022-10-16T09:01:03;2.27;;;1.10;;
8993;SDS011;4532;50.886;4.700;2022-10-16T09:12:40;4.03;;;0.97;;
8993;SDS011;4532;50.886;4.700;2022-10-16T09:18:06;1.27;;;0.80;;
8993;SDS011;4532;50.886;4.700;2022-10-16T09:23:53;5.50;;;1.10;;
8993;SDS011;4532;50.886;4.700;2022-10-16T09:26:24;2.77;;;1.00;;
8993;SDS011;4532;50.886;4.700;2022-10-16T09:28:52;2.43;;;0.70;;
8993;SDS011;4532;50.886;4.700;2022-10-16T09:31:20;3.70;;;0.93;;
8993;SDS011;4532;50.886;4.700;2022-10-16T09:33:58;3.13;;;1.03;;
8993;SDS011;4532;50.886;4.700;2022-10-16T09:36:35;7.93;;;1.10;;
8993;SDS011;4532;50.886;4.700;2022-10-16T09:39:09;1.53;;;0.90;;
8993;SDS011;4532;50.886;4.700;2022-10-16T09:41:42;3.57;;;1.33;;
8993;SDS011;4532;50.886;4.700;2022-10-16T09:44:30;2.33;;;0.87;;
8993;SDS011;4532;50.886;4.700;2022-10-16T09:47:04;1.47;;;0.60;;
8993;SDS011;4532;50.886;4.700;2022-10-16T09:49:50;1.50;;;0.60;;
8993;SDS011;4532;50.886;4.700;2022-10-16T09:52:22;4.30;;;1.00;;
8993;SDS011;4532;50.886;4.700;2022-10-16T09:55:00;4.03;;;0.97;;
8993;SDS011;4532;50.886;4.700;2022-10-16T09:57:50;4.13;;;0.87;;
8993;SDS011;4532;50.886;4.700;2022-10-16T10:00:22;2.63;;;1.00;;
8993;SDS011;4532;50.886;4.700;2022-10-16T10:02:51;2.10;;;0.80;;
8993;SDS011;4532;50.886;4.700;2022-10-16T10:05:21;1.77;;;0.70;;
8993;SDS011;4532;50.886;4.700;2022-10-16T10:07:54;3.97;;;1.00;;
8993;SDS011;4532;50.886;4.700;2022-10-16T10:12:54;1.43;;;0.80;;
8993;SDS011;4532;50.886;4.700;2022-10-16T10:15:22;3.50;;;1.00;;
8993;SDS011;4532;50.886;4.700;2022-10-16T10:17:52;2.73;;;1.00;;
8993;SDS011;4532;50.886;4.700;2022-10-16T10:20:22;4.87;;;1.00;;
8993;SDS011;4532;50.886;4.700;2022-10-16T10:22:54;3.23;;;0.83;;
8993;SDS011;4532;50.886;4.700;2022-10-16T10:31:16;6.43;;;1.20;;
8993;SDS011;4532;50.886;4.700;2022-10-16T10:37:14;3.90;;;0.80;;
8993;SDS011;4532;50.886;4.700;2022-10-16T10:39:48;2.50;;;0.90;;
8993;SDS011;4532;50.886;4.700;2022-10-16T10:42:28;2.10;;;0.80;;
8993;SDS011;4532;50.886;4.700;2022-10-16T10:45:28;2.70;;;0.70;;
8993;SDS011;4532;50.886;4.700;2022-10-16T10:50:49;2.90;;;0.80;;
8993;SDS011;4532;50.886;4.700;2022-10-16T11:04:42;3.07;;;0.80;;
8993;SDS011;4532;50.886;4.700;2022-10-16T11:07:34;3.83;;;0.90;;
8993;SDS011;4532;50.886;4.700;2022-10-16T11:10:13;2.27;;;0.50;;
8993;SDS011;4532;50.886;4.700;2022-10-16T11:12:47;3.40;;;0.80;;
8993;SDS011;4532;50.886;4.700;2022-10-16T11:15:32;2.50;;;0.80;;
8993;SDS011;4532;50.886;4.700;2022-10-16T11:18:05;0.80;;;0.50;;
8993;SDS011;4532;50.886;4.700;2022-10-16T11:20:54;2.83;;;0.70;;
8993;SDS011;4532;50.886;4.700;2022-10-16T11:23:26;1.53;;;0.63;;
8993;SDS011;4532;50.886;4.700;2022-10-16T11:26:02;1.50;;;0.73;;
8993;SDS011;4532;50.886;4.700;2022-10-16T11:28:37;5.33;;;0.80;;
8993;SDS011;4532;50.886;4.700;2022-10-16T11:39:32;1.43;;;0.50;;
8993;SDS011;4532;50.886;4.700;2022-10-16T11:42:04;2.03;;;0.77;;
8993;SDS011;4532;50.886;4.700;2022-10-16T11:50:31;3.47;;;1.00;;
8993;SDS011;4532;50.886;4.700;2022-10-16T11:53:53;2.60;;;0.70;;
8993;SDS011;4532;50.886;4.700;2022-10-16T11:56:26;2.57;;;0.90;;
8993;SDS011;4532;50.886;4.700;2022-10-16T12:01:38;1.63;;;0.80;;
8993;SDS011;4532;50.886;4.700;2022-10-16T12:07:07;4.33;;;0.67;;
8993;SDS011;4532;50.886;4.700;2022-10-16T12:09:38;2.17;;;0.50;;
8993;SDS011;4532;50.886;4.700;2022-10-16T12:12:37;3.10;;;0.63;;
8993;SDS011;4532;50.886;4.700;2022-10-16T12:15:19;3.20;;;0.70;;
8993;SDS011;4532;50.886;4.700;2022-10-16T12:18:20;1.17;;;0.50;;
8993;SDS011;4532;50.886;4.700;2022-10-16T12:20:55;2.73;;;0.70;;
8993;SDS011;4532;50.886;4.700;2022-10-16T12:23:32;2.67;;;0.97;;
8993;SDS011;4532;50.886;4.700;2022-10-16T12:26:04;2.87;;;0.70;;
8993;SDS011;4532;50.886;4.700;2022-10-16T12:28:32;2.07;;;0.80;;
8993;SDS011;4532;50.886;4.700;2022-10-16T12:33:33;2.37;;;0.90;;
8993;SDS011;4532;50.886;4.700;2022-10-16T12:36:02;2.97;;;0.70;;
8993;SDS011;4532;50.886;4.700;2022-10-16T12:38:50;1.10;;;0.57;;
8993;SDS011;4532;50.886;4.700;2022-10-16T12:41:25;1.43;;;0.60;;
8993;SDS011;4532;50.886;4.700;2022-10-16T12:44:04;3.83;;;0.80;;
8993;SDS011;4532;50.886;4.700;2022-10-16T12:51:40;2.80;;;0.70;;
8993;SDS011;4532;50.886;4.700;2022-10-16T13:02:44;4.37;;;0.90;;
8993;SDS011;4532;50.886;4.700;2022-10-16T13:08:19;2.57;;;0.77;;
8993;SDS011;4532;50.886;4.700;2022-10-16T13:14:21;2.80;;;0.77;;
8993;SDS011;4532;50.886;4.700;2022-10-16T13:30:26;3.45;;;0.90;;
8993;SDS011;4532;50.886;4.700;2022-10-16T13:33:00;1.33;;;0.60;;
8993;SDS011;4532;50.886;4.700;2022-10-16T13:35:53;1.53;;;0.57;;
8993;SDS011;4532;50.886;4.700;2022-10-16T13:38:31;1.42;;;0.60;;
8993;SDS011;4532;50.886;4.700;2022-10-16T13:41:03;2.90;;;0.60;;
8993;SDS011;4532;50.886;4.700;2022-10-16T13:48:40;3.15;;;0.90;;
8993;SDS011;4532;50.886;4.700;2022-10-16T13:51:17;2.20;;;1.00;;
8993;SDS011;4532;50.886;4.700;2022-10-16T13:53:54;2.20;;;0.90;;
8993;SDS011;4532;50.886;4.700;2022-10-16T13:56:27;2.63;;;0.80;;
8993;SDS011;4532;50.886;4.700;2022-10-16T13:59:22;4.60;;;0.70;;
8993;SDS011;4532;50.886;4.700;2022-10-16T14:02:05;4.10;;;0.85;;
8993;SDS011;4532;50.886;4.700;2022-10-16T14:04:51;2.03;;;0.80;;
8993;SDS011;4532;50.886;4.700;2022-10-16T14:07:25;1.83;;;0.97;;
8993;SDS011;4532;50.886;4.700;2022-10-16T14:09:55;1.48;;;0.82;;
8993;SDS011;4532;50.886;4.700;2022-10-16T14:12:28;2.58;;;0.77;;
8993;SDS011;4532;50.886;4.700;2022-10-16T14:14:56;3.97;;;1.02;;
8993;SDS011;4532;50.886;4.700;2022-10-16T14:17:26;2.28;;;1.00;;
8993;SDS011;4532;50.886;4.700;2022-10-16T14:19:56;1.80;;;0.93;;
8993;SDS011;4532;50.886;4.700;2022-10-16T14:22:34;2.60;;;1.00;;
8993;SDS011;4532;50.886;4.700;2022-10-16T14:30:52;3.75;;;0.77;;
8993;SDS011;4532;50.886;4.700;2022-10-16T14:36:04;0.95;;;0.60;;
8993;SDS011;4532;50.886;4.700;2022-10-16T14:38:32;3.30;;;0.63;;
8993;SDS011;4532;50.886;4.700;2022-10-16T14:41:02;2.47;;;0.73;;
8993;SDS011;4532;50.886;4.700;2022-10-16T14:43:36;2.67;;;0.57;;
8993;SDS011;4532;50.886;4.700;2022-10-16T14:46:09;2.53;;;0.82;;
8993;SDS011;4532;50.886;4.700;2022-10-16T14:48:43;3.20;;;0.60;;
8993;SDS011;4532;50.886;4.700;2022-10-16T14:51:14;3.22;;;1.25;;
8993;SDS011;4532;50.886;4.700;2022-10-16T14:53:43;3.05;;;0.73;;
8993;SDS011;4532;50.886;4.700;2022-10-16T14:56:20;1.80;;;0.65;;
8993;SDS011;4532;50.886;4.700;2022-10-16T14:58:51;1.17;;;0.70;;
8993;SDS011;4532;50.886;4.700;2022-10-16T15:01:19;2.05;;;0.80;;
8993;SDS011;4532;50.886;4.700;2022-10-16T15:03:47;1.85;;;0.80;;
8993;SDS011;4532;50.886;4.700;2022-10-16T15:06:15;2.05;;;0.70;;
8993;SDS011;4532;50.886;4.700;2022-10-16T15:08:43;2.33;;;1.02;;
8993;SDS011;4532;50.886;4.700;2022-10-16T15:11:11;1.35;;;0.50;;
8993;SDS011;4532;50.886;4.700;2022-10-16T15:13:43;1.20;;;0.80;;
8993;SDS011;4532;50.886;4.700;2022-10-16T15:16:11;2.30;;;0.70;;
8993;SDS011;4532;50.886;4.700;2022-10-16T15:18:39;1.83;;;0.80;;
8993;SDS011;4532;50.886;4.700;2022-10-16T15:21:06;2.10;;;0.82;;
8993;SDS011;4532;50.886;4.700;2022-10-16T15:23:33;2.67;;;0.90;;
8993;SDS011;4532;50.886;4.700;2022-10-16T15:26:01;4.38;;;1.00;;
8993;SDS011;4532;50.886;4.700;2022-10-16T15:28:28;3.15;;;1.00;;
8993;SDS011;4532;50.886;4.700;2022-10-16T15:30:55;2.13;;;0.85;;
8993;SDS011;4532;50.886;4.700;2022-10-16T15:33:25;3.42;;;1.17;;
8993;SDS011;4532;50.886;4.700;2022-10-16T15:36:05;5.53;;;1.10;;
8993;SDS011;4532;50.886;4.700;2022-10-16T15:38:36;2.13;;;1.20;;
8993;SDS011;4532;50.886;4.700;2022-10-16T15:41:03;0.95;;;0.77;;
8993;SDS011;4532;50.886;4.700;2022-10-16T15:43:30;1.67;;;0.77;;
8993;SDS011;4532;50.886;4.700;2022-10-16T15:46:06;2.55;;;1.00;;
8993;SDS011;4532;50.886;4.700;2022-10-16T15:48:37;2.20;;;1.10;;
8993;SDS011;4532;50.886;4.700;2022-10-16T15:51:05;3.35;;;1.00;;
8993;SDS011;4532;50.886;4.700;2022-10-16T15:53:34;1.58;;;0.90;;
8993;SDS011;4532;50.886;4.700;2022-10-16T15:56:02;1.88;;;0.95;;
8993;SDS011;4532;50.886;4.700;2022-10-16T15:58:39;2.03;;;0.93;;
8993;SDS011;4532;50.886;4.700;2022-10-16T16:01:06;3.83;;;1.20;;
8993;SDS011;4532;50.886;4.700;2022-10-16T16:03:36;2.28;;;1.10;;
8993;SDS011;4532;50.886;4.700;2022-10-16T16:06:07;2.83;;;0.95;;
8993;SDS011;4532;50.886;4.700;2022-10-16T16:08:36;3.30;;;1.00;;
8993;SDS011;4532;50.886;4.700;2022-10-16T16:11:07;3.63;;;1.05;;
8993;SDS011;4532;50.886;4.700;2022-10-16T16:13:36;2.97;;;1.17;;
8993;SDS011;4532;50.886;4.700;2022-10-16T16:16:05;2.40;;;1.13;;
8993;SDS011;4532;50.886;4.700;2022-10-16T16:18:40;2.55;;;0.95;;
8993;SDS011;4532;50.886;4.700;2022-10-16T16:21:10;2.30;;;1.10;;
8993;SDS011;4532;50.886;4.700;2022-10-16T16:23:41;1.60;;;1.17;;
8993;SDS011;4532;50.886;4.700;2022-10-16T16:26:23;1.33;;;0.80;;
8993;SDS011;4532;50.886;4.700;2022-10-16T16:28:54;3.55;;;1.05;;
8993;SDS011;4532;50.886;4.700;2022-10-16T16:31:28;3.67;;;1.10;;
8993;SDS011;4532;50.886;4.700;2022-10-16T16:33:57;1.33;;;0.80;;
8993;SDS011;4532;50.886;4.700;2022-10-16T16:36:24;1.53;;;1.10;;
8993;SDS011;4532;50.886;4.700;2022-10-16T16:38:52;2.63;;;0.98;;
8993;SDS011;4532;50.886;4.700;2022-10-16T16:41:20;3.13;;;1.50;;
8993;SDS011;4532;50.886;4.700;2022-10-16T16:43:49;2.22;;;1.40;;
8993;SDS011;4532;50.886;4.700;2022-10-16T16:46:20;2.08;;;1.10;;
8993;SDS011;4532;50.886;4.700;2022-10-16T16:48:48;1.98;;;1.00;;
8993;SDS011;4532;50.886;4.700;2022-10-16T16:51:17;2.53;;;1.23;;
8993;SDS011;4532;50.886;4.700;2022-10-16T16:53:48;2.33;;;1.10;;
8993;SDS011;4532;50.886;4.700;2022-10-16T16:56:17;3.65;;;1.48;;
8993;SDS011;4532;50.886;4.700;2022-10-16T16:58:46;2.13;;;1.10;;
8993;SDS011;4532;50.886;4.700;2022-10-16T17:01:16;2.13;;;1.40;;
8993;SDS011;4532;50.886;4.700;2022-10-16T17:03:47;3.87;;;1.67;;
8993;SDS011;4532;50.886;4.700;2022-10-16T17:06:18;4.90;;;2.00;;
8993;SDS011;4532;50.886;4.700;2022-10-16T17:08:47;5.07;;;2.00;;
8993;SDS011;4532;50.886;4.700;2022-10-16T17:11:16;2.67;;;1.60;;
8993;SDS011;4532;50.886;4.700;2022-10-16T17:13:45;2.40;;;1.53;;
8993;SDS011;4532;50.886;4.700;2022-10-16T17:16:18;3.22;;;1.73;;
8993;SDS011;4532;50.886;4.700;2022-10-16T17:18:47;2.83;;;1.58;;
8993;SDS011;4532;50.886;4.700;2022-10-16T17:21:15;3.90;;;1.50;;
8993;SDS011;4532;50.886;4.700;2022-10-16T17:23:42;5.65;;;2.13;;
8993;SDS011;4532;50.886;4.700;2022-10-16T17:26:10;3.42;;;1.70;;
8993;SDS011;4532;50.886;4.700;2022-10-16T17:28:40;4.13;;;1.80;;
8993;SDS011;4532;50.886;4.700;2022-10-16T17:33:46;3.88;;;2.05;;
8993;SDS011;4532;50.886;4.700;2022-10-16T17:36:14;3.58;;;1.83;;
8993;SDS011;4532;50.886;4.700;2022-10-16T17:38:41;3.45;;;2.03;;
8993;SDS011;4532;50.886;4.700;2022-10-16T17:41:19;5.47;;;2.33;;
8993;SDS011;4532;50.886;4.700;2022-10-16T17:43:50;3.40;;;1.80;;
8993;SDS011;4532;50.886;4.700;2022-10-16T17:46:19;4.25;;;2.15;;
8993;SDS011;4532;50.886;4.700;2022-10-16T17:48:48;3.10;;;2.17;;
8993;SDS011;4532;50.886;4.700;2022-10-16T17:51:17;4.32;;;2.33;;
8993;SDS011;4532;50.886;4.700;2022-10-16T17:53:49;4.95;;;2.00;;
8993;SDS011;4532;50.886;4.700;2022-10-16T17:56:20;5.35;;;2.40;;
8993;SDS011;4532;50.886;4.700;2022-10-16T17:58:48;3.85;;;2.17;;
8993;SDS011;4532;50.886;4.700;2022-10-16T18:01:19;3.33;;;2.40;;
8993;SDS011;4532;50.886;4.700;2022-10-16T18:03:50;4.78;;;2.55;;